createdAt,value
2023-04-22T00:02:53.632Z,51.42
2023-04-22T00:05:56.801Z,51.05
2023-04-22T00:08:59.567Z,51.21
2023-04-22T00:12:02.566Z,51.09
2023-04-22T00:15:06.003Z,51.01
2023-04-22T00:18:14.152Z,51.56
2023-04-22T00:21:17.139Z,50.76
2023-04-22T00:24:21.063Z,50.23
2023-04-22T00:27:23.735Z,50.04
2023-04-22T00:30:26.621Z,50.19
2023-04-22T00:33:29.320Z,49.69
2023-04-22T00:36:32.120Z,49.82
2023-04-22T00:39:35.360Z,49.61
2023-04-22T00:42:38.332Z,49.81
2023-04-22T00:45:42.835Z,50.03
2023-04-22T00:48:45.947Z,50.20
2023-04-22T00:51:48.575Z,50.03
2023-04-22T00:54:52.448Z,50.21
2023-04-22T00:57:58.469Z,50.34
2023-04-22T01:01:01.291Z,50.51
2023-04-22T01:04:04.889Z,51.28
2023-04-22T01:07:07.648Z,52.09
2023-04-22T01:10:10.686Z,52.25
2023-04-22T01:13:13.391Z,52.52
2023-04-22T01:16:16.378Z,52.68
2023-04-22T01:19:19.487Z,52.93
2023-04-22T01:22:23.067Z,53.22
2023-04-22T01:25:29.204Z,53.46
2023-04-22T01:28:32.361Z,53.46
2023-04-22T01:31:35.478Z,53.32
2023-04-22T01:34:38.108Z,53.42
2023-04-22T01:37:40.754Z,53.99
2023-04-22T01:40:43.584Z,53.74
2023-04-22T01:43:46.953Z,53.67
2023-04-22T01:46:49.587Z,53.46
2023-04-22T01:49:52.234Z,54.09
2023-04-22T01:52:57.354Z,54.31
2023-04-22T01:56:00.302Z,54.13
2023-04-22T01:59:02.859Z,54.36
2023-04-22T02:02:10.352Z,55.32
2023-04-22T02:05:13.100Z,54.25
2023-04-22T02:08:16.007Z,54.45
2023-04-22T02:11:21.435Z,54.43
2023-04-22T02:14:24.062Z,54.88
2023-04-22T02:17:27.400Z,55.66
2023-04-22T02:20:30.060Z,55.90
2023-04-22T02:23:33.217Z,55.88
2023-04-22T02:26:36.057Z,56.09
2023-04-22T02:29:39.020Z,56.38
2023-04-22T02:32:44.597Z,56.57
2023-04-22T02:35:47.316Z,56.73
2023-04-22T02:38:54.162Z,56.89
2023-04-22T02:41:57.085Z,57.25
2023-04-22T02:44:59.941Z,57.50
2023-04-22T02:48:03.050Z,57.38
2023-04-22T02:51:06.672Z,57.48
2023-04-22T02:54:09.684Z,57.65
2023-04-22T02:57:12.281Z,57.67
2023-04-22T03:00:15.011Z,58.15
2023-04-22T03:03:17.847Z,58.02
2023-04-22T03:06:20.914Z,58.72
2023-04-22T03:09:24.976Z,58.80
2023-04-22T03:12:27.615Z,58.49
2023-04-22T03:15:30.636Z,58.81
2023-04-22T03:18:33.383Z,58.55
2023-04-22T03:21:36.077Z,58.34
2023-04-22T03:24:38.806Z,57.44
2023-04-22T03:27:44.361Z,58.17
2023-04-22T03:30:47.944Z,58.37
2023-04-22T03:33:50.621Z,57.86
2023-04-22T03:37:03.128Z,57.48
2023-04-22T03:40:07.713Z,57.46
2023-04-22T03:43:10.505Z,57.28
2023-04-22T03:46:14.028Z,58.13
2023-04-22T03:49:21.787Z,58.04
2023-04-22T03:52:24.391Z,58.02
2023-04-22T03:55:34.233Z,57.43
2023-04-22T03:58:37.383Z,57.97
2023-04-22T04:01:42.840Z,58.28
2023-04-22T04:04:46.789Z,58.25
2023-04-22T04:07:51.078Z,58.15
2023-04-22T04:10:53.744Z,57.60
2023-04-22T04:13:56.504Z,57.26
2023-04-22T04:17:09.256Z,56.76
2023-04-22T04:20:12.614Z,56.97
2023-04-22T04:23:17.441Z,57.20
2023-04-22T04:26:21.644Z,57.26
2023-04-22T04:29:28.996Z,57.06
2023-04-22T04:32:40.841Z,57.26
2023-04-22T04:35:45.637Z,56.51
2023-04-22T04:38:53.706Z,56.75
2023-04-22T04:41:59.066Z,56.14
2023-04-22T04:45:04.502Z,55.73
2023-04-22T04:48:07.981Z,56.25
2023-04-22T04:51:13.266Z,56.16
2023-04-22T04:54:23.338Z,56.20
2023-04-22T04:57:26.098Z,56.27
2023-04-22T05:00:29.664Z,56.13
2023-04-22T05:03:33.187Z,55.76
2023-04-22T05:06:36.264Z,55.86
2023-04-22T05:09:40.962Z,55.78
2023-04-22T05:12:47.791Z,56.10
2023-04-22T05:15:56.406Z,56.21
2023-04-22T05:19:01.861Z,55.82
2023-04-22T05:22:05.484Z,56.13
2023-04-22T05:25:08.993Z,55.36
2023-04-22T05:28:12.594Z,54.05
2023-04-22T05:31:22.557Z,54.60
2023-04-22T05:34:25.324Z,55.10
2023-04-22T05:37:29.982Z,55.42
2023-04-22T05:40:33.049Z,55.16
2023-04-22T05:43:36.280Z,55.26
2023-04-22T05:46:46.048Z,54.31
2023-04-22T05:49:49.464Z,54.13
2023-04-22T05:53:08.009Z,53.75
2023-04-22T05:56:10.599Z,53.32
2023-04-22T05:59:13.317Z,53.35
2023-04-22T06:02:16.530Z,52.45
2023-04-22T06:05:19.511Z,51.60
2023-04-22T06:08:22.798Z,50.82
2023-04-22T06:11:26.603Z,49.15
2023-04-22T06:14:29.095Z,47.79
2023-04-22T06:17:31.720Z,46.66
2023-04-22T06:20:35.962Z,46.18
2023-04-22T06:23:38.815Z,46.40
2023-04-22T06:26:41.548Z,45.67
2023-04-22T06:29:44.301Z,44.84
2023-04-22T06:32:46.843Z,44.48
2023-04-22T06:35:49.487Z,44.57
2023-04-22T06:38:52.556Z,44.29
2023-04-22T06:42:24.343Z,43.59
2023-04-22T06:45:45.723Z,43.59
2023-04-22T06:48:57.342Z,42.72
2023-04-22T06:52:19.216Z,42.29
2023-04-22T06:55:22.050Z,42.12
2023-04-22T06:58:24.726Z,41.82
2023-04-22T07:01:27.567Z,40.91
2023-04-22T07:04:31.819Z,40.77
2023-04-22T07:07:36.135Z,40.42
2023-04-22T07:10:39.344Z,39.18
2023-04-22T07:14:05.023Z,38.19
2023-04-22T07:17:07.673Z,38.14
2023-04-22T07:20:11.237Z,37.18
2023-04-22T07:23:13.729Z,36.39
2023-04-22T07:26:16.376Z,36.27
2023-04-22T07:29:19.403Z,35.61
2023-04-22T07:32:22.535Z,34.22
2023-04-22T07:35:25.683Z,33.94
2023-04-22T07:38:28.494Z,34.82
2023-04-22T07:41:31.814Z,35.06
2023-04-22T07:44:34.664Z,33.13
2023-04-22T07:47:37.261Z,32.95
2023-04-22T07:50:41.701Z,32.90
2023-04-22T07:53:44.779Z,32.35
2023-04-22T07:56:47.508Z,32.13
2023-04-22T07:59:50.339Z,32.00
2023-04-22T08:02:53.271Z,31.56
2023-04-22T08:05:58.333Z,31.01
2023-04-22T08:09:02.218Z,30.21
2023-04-22T08:12:05.182Z,29.62
2023-04-22T08:15:08.185Z,29.01
2023-04-22T08:18:11.049Z,28.50
2023-04-22T08:21:14.771Z,28.07
2023-04-22T08:24:17.423Z,28.24
2023-04-22T08:27:22.246Z,27.32
2023-04-22T08:30:25.079Z,26.93
2023-04-22T08:33:28.072Z,24.66
2023-04-22T08:36:32.700Z,24.69
2023-04-22T08:39:35.583Z,24.17
2023-04-22T08:42:38.646Z,24.29
2023-04-22T08:45:42.228Z,23.57
2023-04-22T08:48:47.439Z,23.08
2023-04-22T08:51:50.878Z,23.73
2023-04-22T08:54:53.635Z,22.86
2023-04-22T08:58:01.123Z,23.44
2023-04-22T09:01:04.962Z,23.14
2023-04-22T09:04:10.346Z,22.95
2023-04-22T09:07:19.144Z,21.99
2023-04-22T09:10:22.751Z,22.02
2023-04-22T09:13:27.411Z,21.81
2023-04-22T09:16:33.906Z,21.51
2023-04-22T09:19:36.619Z,21.42
2023-04-22T09:22:43.860Z,21.69
2023-04-22T09:25:47.031Z,20.74
2023-04-22T09:28:56.021Z,19.97
2023-04-22T09:31:58.632Z,19.83
2023-04-22T09:35:03.901Z,19.17
2023-04-22T09:38:08.313Z,18.54
2023-04-22T09:41:12.372Z,19.28
2023-04-22T09:44:20.955Z,18.80
2023-04-22T09:47:26.024Z,18.22
2023-04-22T09:50:29.650Z,16.70
2023-04-22T09:53:37.476Z,15.99
2023-04-22T09:56:48.361Z,15.79
2023-04-22T09:59:52.578Z,14.22
2023-04-22T10:02:55.299Z,14.41
2023-04-22T10:05:59.146Z,15.70
2023-04-22T10:09:02.773Z,17.20
2023-04-22T10:12:05.360Z,18.28
2023-04-22T10:15:08.379Z,16.68
2023-04-22T10:18:14.268Z,12.96
2023-04-22T10:21:19.748Z,11.00
2023-04-22T10:24:25.404Z,9.84
2023-04-22T10:27:27.976Z,9.54
2023-04-22T10:30:33.274Z,8.71
2023-04-22T10:33:37.030Z,7.53
2023-04-22T10:37:13.176Z,7.04
2023-04-22T10:40:18.436Z,7.32
2023-04-22T10:43:41.327Z,6.78
2023-04-22T10:46:45.770Z,6.64
2023-04-22T10:49:51.293Z,6.56
2023-04-22T10:52:57.020Z,9.34
2023-04-22T10:56:01.116Z,7.29
2023-04-22T10:59:17.031Z,7.27
2023-04-22T11:02:21.679Z,6.22
2023-04-22T11:05:27.504Z,9.37
2023-04-22T11:08:30.262Z,9.38
2023-04-22T11:11:33.212Z,10.38
2023-04-22T11:14:35.878Z,12.34
2023-04-22T11:17:42.046Z,14.30
2023-04-22T11:20:45.498Z,14.52
2023-04-22T11:23:53.031Z,16.33
2023-04-22T11:26:57.144Z,15.90
2023-04-22T11:30:11.173Z,15.88
2023-04-22T11:33:16.051Z,16.19
2023-04-22T11:36:19.539Z,17.31
2023-04-22T11:39:22.217Z,16.89
2023-04-22T11:42:24.911Z,17.60
2023-04-22T11:45:29.136Z,17.95
2023-04-22T11:48:31.782Z,18.32
2023-04-22T11:51:34.710Z,18.45
2023-04-22T11:54:38.485Z,20.48
2023-04-22T11:57:42.913Z,20.03
2023-04-22T12:00:50.651Z,19.70
2023-04-22T12:04:00.559Z,19.04
2023-04-22T12:07:04.129Z,18.41
2023-04-22T12:10:08.071Z,16.87
2023-04-22T12:13:22.276Z,9.97
2023-04-22T12:16:25.088Z,10.64
2023-04-22T12:19:27.778Z,13.07
2023-04-22T12:22:30.524Z,14.56
2023-04-22T12:25:34.030Z,15.39
2023-04-22T12:28:38.245Z,15.67
2023-04-22T12:31:41.058Z,15.24
2023-04-22T12:34:43.929Z,15.41
2023-04-22T12:37:46.625Z,8.96
2023-04-22T12:40:49.409Z,9.69
2023-04-22T12:43:52.785Z,11.83
2023-04-22T12:46:56.659Z,10.17
2023-04-22T12:50:01.350Z,8.71
2023-04-22T12:53:03.982Z,10.24
2023-04-22T12:56:06.709Z,12.90
2023-04-22T12:59:09.294Z,14.00
2023-04-22T13:02:12.171Z,15.41
2023-04-22T13:05:16.472Z,16.00
2023-04-22T13:08:19.284Z,16.85
2023-04-22T13:11:22.472Z,16.54
2023-04-22T13:14:25.746Z,15.38
2023-04-22T13:17:28.447Z,12.62
2023-04-22T13:20:31.313Z,10.54
2023-04-22T13:23:35.420Z,8.96
2023-04-22T13:26:38.980Z,7.41
2023-04-22T13:29:42.388Z,11.95
2023-04-22T13:32:45.973Z,12.76
2023-04-22T13:35:48.713Z,14.35
2023-04-22T13:38:53.812Z,14.89
2023-04-22T13:41:56.971Z,15.80
2023-04-22T13:44:59.616Z,16.20
2023-04-22T13:48:02.271Z,16.32
2023-04-22T13:51:05.383Z,16.63
2023-04-22T13:54:08.303Z,13.94
2023-04-22T13:57:10.895Z,12.43
2023-04-22T14:00:13.908Z,14.66
2023-04-22T14:03:17.287Z,15.95
2023-04-22T14:06:20.471Z,15.47
2023-04-22T14:09:23.094Z,12.73
2023-04-22T14:12:25.833Z,12.96
2023-04-22T14:15:28.706Z,13.75
2023-04-22T14:18:31.496Z,15.67
2023-04-22T14:21:34.095Z,17.09
2023-04-22T14:24:37.840Z,17.08
2023-04-22T14:27:41.198Z,17.24
2023-04-22T14:30:44.348Z,17.06
2023-04-22T14:33:47.096Z,17.27
2023-04-22T14:36:49.747Z,17.89
2023-04-22T14:39:52.830Z,17.94
2023-04-22T14:42:56.488Z,18.71
2023-04-22T14:45:59.187Z,19.42
2023-04-22T14:49:02.082Z,19.08
2023-04-22T14:52:06.712Z,19.80
2023-04-22T14:55:21.986Z,19.78
2023-04-22T14:58:27.196Z,19.86
2023-04-22T15:01:31.673Z,20.11
2023-04-22T15:04:34.352Z,20.30
2023-04-22T15:07:37.716Z,19.87
2023-04-22T15:10:40.325Z,20.14
2023-04-22T15:13:43.843Z,20.23
2023-04-22T15:16:46.833Z,20.15
2023-04-22T15:19:50.228Z,20.77
2023-04-22T15:22:52.984Z,20.71
2023-04-22T15:25:55.758Z,20.88
2023-04-22T15:28:58.540Z,20.50
2023-04-22T15:32:02.245Z,20.86
2023-04-22T15:35:07.315Z,20.51
2023-04-22T15:38:09.998Z,20.29
2023-04-22T15:41:13.408Z,20.24
2023-04-22T15:44:16.946Z,20.46
2023-04-22T15:47:19.905Z,21.10
2023-04-22T15:50:23.545Z,21.72
2023-04-22T15:53:26.189Z,22.44
2023-04-22T15:56:29.531Z,22.50
2023-04-22T15:59:32.060Z,22.88
2023-04-22T16:02:36.885Z,22.57
2023-04-22T16:07:32.071Z,25.14
2023-04-22T16:13:27.231Z,23.37
2023-04-22T16:16:31.962Z,23.75
2023-04-22T16:19:36.882Z,24.11
2023-04-22T16:22:39.540Z,24.67
2023-04-22T16:25:42.307Z,24.88
2023-04-22T16:28:46.798Z,24.92
2023-04-22T16:31:49.357Z,25.96
2023-04-22T16:34:52.481Z,26.46
2023-04-22T16:37:55.064Z,27.10
2023-04-22T16:40:57.685Z,25.28
2023-04-22T16:44:01.097Z,25.00
2023-04-22T16:47:03.726Z,27.14
2023-04-22T16:50:07.047Z,26.52
2023-04-22T16:53:11.863Z,26.58
2023-04-22T16:56:14.467Z,25.50
2023-04-22T16:59:17.376Z,26.32
2023-04-22T17:02:20.108Z,26.05
2023-04-22T17:05:22.851Z,26.07
2023-04-22T17:08:25.852Z,28.18
2023-04-22T17:11:32.389Z,26.41
2023-04-22T17:14:34.920Z,26.36
2023-04-22T17:17:37.516Z,27.06
2023-04-22T17:20:40.609Z,26.94
2023-04-22T17:23:43.638Z,26.64
2023-04-22T17:26:46.278Z,27.17
2023-04-22T17:29:48.923Z,27.29
2023-04-22T17:32:51.881Z,27.40
2023-04-22T17:35:56.211Z,27.60
2023-04-22T17:38:58.869Z,28.35
2023-04-22T17:42:02.509Z,28.32
2023-04-22T17:45:05.471Z,28.58
2023-04-22T17:48:08.508Z,28.22
2023-04-22T17:51:11.671Z,29.79
2023-04-22T17:54:14.494Z,28.68
2023-04-22T17:57:17.374Z,28.40
2023-04-22T18:00:20.864Z,28.29
2023-04-22T18:03:23.857Z,28.68
2023-04-22T18:06:27.669Z,28.73
2023-04-22T18:09:30.600Z,29.20
2023-04-22T18:12:33.427Z,29.04
2023-04-22T18:15:36.297Z,29.52
2023-04-22T18:18:40.492Z,29.78
2023-04-22T18:21:56.707Z,29.86
2023-04-22T18:25:02.730Z,30.08
2023-04-22T18:28:05.538Z,30.44
2023-04-22T18:31:08.356Z,30.29
2023-04-22T18:34:13.477Z,30.95
2023-04-22T18:37:16.831Z,31.04
2023-04-22T18:40:20.765Z,31.42
2023-04-22T18:43:23.531Z,31.36
2023-04-22T18:46:26.203Z,31.79
2023-04-22T18:49:33.656Z,32.08
2023-04-22T18:52:37.188Z,31.95
2023-04-22T18:55:41.926Z,31.91
2023-04-22T18:58:45.148Z,32.47
2023-04-22T19:01:48.133Z,32.21
2023-04-22T19:04:51.647Z,32.57
2023-04-22T19:07:54.522Z,32.64
2023-04-22T19:10:58.174Z,32.82
2023-04-22T19:14:03.081Z,33.46
2023-04-22T19:17:05.702Z,33.19
2023-04-22T19:20:09.287Z,33.08
2023-04-22T19:23:17.384Z,32.89
2023-04-22T19:26:21.215Z,33.44
2023-04-22T19:29:23.776Z,33.16
2023-04-22T19:32:26.824Z,33.63
2023-04-22T19:35:30.079Z,33.95
2023-04-22T19:38:32.958Z,33.83
2023-04-22T19:41:38.869Z,34.07
2023-04-22T19:44:46.600Z,33.96
2023-04-22T19:47:51.318Z,34.55
2023-04-22T19:50:55.343Z,34.58
2023-04-22T19:53:59.518Z,34.87
2023-04-22T19:57:06.771Z,35.00
2023-04-22T20:00:11.581Z,34.88
2023-04-22T20:03:18.176Z,35.22
2023-04-22T20:06:22.748Z,35.29
2023-04-22T20:09:27.019Z,35.36
2023-04-22T20:12:30.341Z,35.38
2023-04-22T20:15:34.296Z,35.64
2023-04-22T20:18:37.394Z,35.62
2023-04-22T20:21:41.987Z,35.55
2023-04-22T20:24:45.836Z,36.08
2023-04-22T20:27:48.670Z,35.94
2023-04-22T20:30:51.653Z,35.77
2023-04-22T20:33:54.586Z,36.27
2023-04-22T20:36:59.369Z,35.99
2023-04-22T20:40:06.418Z,36.40
2023-04-22T20:43:09.307Z,36.55
2023-04-22T20:46:13.012Z,36.52
2023-04-22T20:49:16.660Z,36.52
2023-04-22T20:52:19.354Z,36.30
2023-04-22T20:55:22.523Z,36.37
2023-04-22T20:58:25.222Z,36.27
2023-04-22T21:01:29.357Z,36.05
2023-04-22T21:04:32.821Z,36.51
2023-04-22T21:07:39.425Z,36.22
2023-04-22T21:10:42.340Z,36.15
2023-04-22T21:13:45.288Z,36.11
2023-04-22T21:16:58.332Z,36.63
2023-04-22T21:20:05.719Z,36.42
2023-04-22T21:23:10.284Z,36.84
2023-04-22T21:26:15.127Z,37.55
2023-04-22T21:29:19.678Z,38.12
2023-04-22T21:32:22.429Z,38.82
2023-04-22T21:35:25.401Z,38.90
2023-04-22T21:38:28.388Z,39.43
2023-04-22T21:41:32.519Z,39.64
2023-04-22T21:44:36.506Z,40.33
2023-04-22T21:47:39.345Z,39.44
2023-04-22T21:50:42.294Z,39.37
2023-04-22T21:53:45.046Z,39.49
2023-04-22T21:56:47.850Z,40.52
2023-04-22T21:59:50.780Z,40.23
2023-04-22T22:02:53.723Z,40.48
2023-04-22T22:05:56.992Z,41.70
2023-04-22T22:08:59.668Z,41.61
2023-04-22T22:12:03.120Z,41.58
2023-04-22T22:15:08.934Z,42.50
2023-04-22T22:18:11.705Z,42.94
2023-04-22T22:21:14.461Z,43.82
2023-04-22T22:24:17.438Z,43.54
2023-04-22T22:27:22.972Z,43.68
2023-04-22T22:30:26.824Z,43.66
2023-04-22T22:33:30.032Z,43.88
2023-04-22T22:36:33.206Z,43.31
2023-04-22T22:39:37.844Z,43.39
2023-04-22T22:42:40.738Z,42.73
2023-04-22T22:45:43.357Z,42.65
2023-04-22T22:48:46.870Z,43.18
2023-04-22T22:51:49.637Z,44.01
2023-04-22T22:54:52.299Z,43.56
2023-04-22T22:57:56.183Z,42.98
2023-04-22T23:00:59.940Z,42.89
2023-04-22T23:04:02.952Z,42.55
2023-04-22T23:07:05.913Z,43.13
2023-04-22T23:10:09.825Z,42.87
2023-04-22T23:13:13.667Z,43.31
2023-04-22T23:16:16.512Z,43.39
2023-04-22T23:19:19.508Z,43.96
2023-04-22T23:22:23.452Z,43.16
2023-04-22T23:25:26.318Z,44.56
2023-04-22T23:28:29.258Z,44.93
2023-04-22T23:31:33.684Z,45.78
2023-04-22T23:34:39.809Z,44.62
2023-04-22T23:37:45.817Z,45.00
2023-04-22T23:40:48.701Z,45.45
2023-04-22T23:43:51.554Z,45.32
2023-04-22T23:46:54.244Z,45.14
2023-04-22T23:49:57.885Z,46.33
2023-04-22T23:53:00.466Z,46.42
2023-04-22T23:56:05.828Z,45.81
2023-04-22T23:59:08.730Z,46.73
